createdAt,value
2023-11-12T07:52:43.126Z,96764.44
2023-11-12T07:55:10.996Z,96744.53
2023-11-12T07:57:40.091Z,96764.09
2023-11-12T08:00:07.763Z,96766.94
2023-11-12T08:02:40.264Z,96752.81
2023-11-12T08:05:11.440Z,96751.47
2023-11-12T08:07:38.581Z,96762.19
2023-11-12T08:10:06.947Z,96785.13
2023-11-12T08:12:33.698Z,96772.19
2023-11-12T08:15:01.161Z,96786.81
2023-11-12T08:17:28.016Z,96794.06
2023-11-12T08:19:55.162Z,96781.50
2023-11-12T08:22:21.870Z,96789.91
2023-11-12T08:24:48.882Z,96792.25
2023-11-12T08:27:16.305Z,96803.41
2023-11-12T08:29:43.445Z,96780.66
2023-11-12T08:32:10.400Z,96788.53
2023-11-12T08:34:38.181Z,96782.63
2023-11-12T08:37:05.195Z,96803.78
2023-11-12T08:39:32.119Z,96784.72
2023-11-12T08:41:59.056Z,96789.03
2023-11-12T08:44:26.105Z,96811.72
2023-11-12T08:46:53.674Z,96782.63
2023-11-12T08:49:20.461Z,96785.63
2023-11-12T08:51:47.279Z,96800.47
2023-11-12T08:54:14.309Z,96812.91
2023-11-12T08:56:40.948Z,96821.53
2023-11-12T08:59:08.841Z,96809.19
2023-11-12T09:01:36.227Z,96814.53
2023-11-12T09:04:03.370Z,96808.63
2023-11-12T09:06:30.116Z,96820.13
2023-11-12T09:08:57.830Z,96798.47
2023-11-12T09:11:24.699Z,96796.16
2023-11-12T09:13:51.992Z,96819.22
2023-11-12T09:16:19.166Z,96802.53
2023-11-12T09:18:45.977Z,96813.53
2023-11-12T09:21:13.060Z,96813.88
2023-11-12T09:23:40.402Z,96816.13
2023-11-12T09:26:07.143Z,96829.22
2023-11-12T09:28:33.772Z,96822.59
2023-11-12T09:31:00.985Z,96817.53
2023-11-12T09:33:28.413Z,96799.31
2023-11-12T09:35:55.501Z,96818.94
2023-11-12T09:38:22.544Z,96802.81
2023-11-12T09:40:50.881Z,96818.34
2023-11-12T09:43:18.358Z,96798.75
2023-11-12T09:45:50.338Z,96821.53
2023-11-12T09:48:36.079Z,96793.03
2023-11-12T09:51:07.313Z,96797.03
2023-11-12T09:53:35.469Z,96794.31
2023-11-12T09:56:10.235Z,96818.75
2023-11-12T09:58:39.275Z,96815.50
2023-11-12T10:01:08.346Z,96806.63
2023-11-12T10:03:36.086Z,96807.69
2023-11-12T10:06:06.885Z,96803.13
2023-11-12T10:08:37.737Z,96796.25
2023-11-12T10:11:41.971Z,96806.09
2023-11-12T10:14:16.675Z,96792.16
2023-11-12T10:16:43.509Z,96811.97
2023-11-12T10:19:13.646Z,96815.09
2023-11-12T10:22:01.262Z,96813.53
2023-11-12T10:24:29.348Z,96803.75
2023-11-12T10:27:01.425Z,96813.38
2023-11-12T10:29:28.434Z,96796.09
2023-11-12T10:31:55.731Z,96788.34
2023-11-12T10:34:24.949Z,96796.56
2023-11-12T10:37:05.763Z,96796.19
2023-11-12T10:39:41.981Z,96797.53
2023-11-12T10:42:24.446Z,96817.94
2023-11-12T10:45:00.219Z,96789.59
2023-11-12T10:47:29.746Z,96818.72
2023-11-12T10:49:57.154Z,96791.44
2023-11-12T10:52:24.520Z,96812.22
2023-11-12T10:54:52.284Z,96817.25
2023-11-12T10:57:22.018Z,96793.47
2023-11-12T10:59:50.099Z,96806.00
2023-11-12T11:02:21.213Z,96818.53
2023-11-12T11:04:48.621Z,96806.97
2023-11-12T11:07:16.275Z,96793.53
2023-11-12T11:09:44.116Z,96812.22
2023-11-12T11:12:11.889Z,96780.56
2023-11-12T11:14:38.651Z,96786.94
2023-11-12T11:17:07.055Z,96812.75
2023-11-12T11:19:46.183Z,96813.25
2023-11-12T11:22:33.597Z,96814.09
2023-11-12T11:25:21.144Z,96793.16
2023-11-12T11:27:48.351Z,96816.44
2023-11-12T11:30:18.677Z,96804.75
2023-11-12T11:33:00.571Z,96805.19
2023-11-12T11:35:28.497Z,96808.34
2023-11-12T11:38:10.371Z,96805.34
2023-11-12T11:40:38.252Z,96808.41
2023-11-12T11:43:23.583Z,96812.34
2023-11-12T11:46:12.609Z,96811.84
2023-11-12T11:48:45.458Z,96810.09
2023-11-12T11:51:39.684Z,96808.44
2023-11-12T11:54:07.359Z,96789.66
2023-11-12T11:56:35.229Z,96812.69
2023-11-12T11:59:02.914Z,96805.91
2023-11-12T12:01:29.705Z,96781.28
2023-11-12T12:04:06.465Z,96808.91
2023-11-12T12:06:34.520Z,96804.94
2023-11-12T12:09:01.314Z,96821.13
2023-11-12T12:11:28.053Z,96824.72
2023-11-12T12:14:06.640Z,96810.06
2023-11-12T12:16:34.796Z,96809.22
2023-11-12T12:19:02.582Z,96815.97
2023-11-12T12:21:31.730Z,96822.72
2023-11-12T12:23:58.581Z,96789.06
2023-11-12T12:26:28.472Z,96804.16
2023-11-12T12:28:56.028Z,96834.91
2023-11-12T12:31:28.794Z,96818.91
2023-11-12T12:34:02.658Z,96836.13
2023-11-12T12:36:29.388Z,96812.34
2023-11-12T12:39:00.677Z,96831.53
2023-11-12T12:41:29.014Z,96804.47
2023-11-12T12:43:57.456Z,96798.75
2023-11-12T12:46:25.637Z,96826.47
2023-11-12T12:48:57.102Z,96836.56
2023-11-12T12:51:24.109Z,96814.22
2023-11-12T12:53:51.970Z,96824.31
2023-11-12T12:56:20.206Z,96819.72
2023-11-12T12:58:47.685Z,96820.53
2023-11-12T13:01:15.995Z,96818.47
2023-11-12T13:03:46.627Z,96800.41
2023-11-12T13:06:16.118Z,96817.94
2023-11-12T13:08:44.940Z,96816.91
2023-11-12T13:11:11.964Z,96801.06
2023-11-12T13:13:39.415Z,96816.53
2023-11-12T13:16:11.095Z,96807.88
2023-11-12T13:18:39.628Z,96810.59
2023-11-12T13:21:07.397Z,96789.47
2023-11-12T13:23:39.603Z,96799.72
2023-11-12T13:26:06.660Z,96802.78
2023-11-12T13:28:34.151Z,96783.16
2023-11-12T13:31:01.888Z,96791.13
2023-11-12T13:33:28.970Z,96776.97
2023-11-12T13:36:01.177Z,96772.88
2023-11-12T13:38:34.784Z,96778.13
2023-11-12T13:41:01.937Z,96803.22
2023-11-12T13:43:30.114Z,96781.66
2023-11-12T13:45:56.952Z,96777.06
2023-11-12T13:48:26.246Z,96800.69
2023-11-12T13:50:56.435Z,96793.47
2023-11-12T13:53:25.241Z,96796.88
2023-11-12T13:55:57.731Z,96818.28
2023-11-12T13:58:26.242Z,96809.41
2023-11-12T14:00:52.974Z,96808.50
2023-11-12T14:03:19.792Z,96816.94
2023-11-12T14:05:46.479Z,96812.81
2023-11-12T14:08:14.285Z,96796.44
2023-11-12T14:10:40.949Z,96789.38
2023-11-12T14:13:10.389Z,96809.00
2023-11-12T14:15:37.167Z,96788.56
2023-11-12T14:18:04.136Z,96816.47
2023-11-12T14:20:31.085Z,96804.25
2023-11-12T14:22:57.961Z,96819.16
2023-11-12T14:25:25.141Z,96794.53
2023-11-12T14:27:53.612Z,96812.00
2023-11-12T14:30:22.110Z,96822.03
2023-11-12T14:32:49.272Z,96819.47
2023-11-12T14:35:18.969Z,96797.78
2023-11-12T14:37:48.448Z,96797.72
2023-11-12T14:40:15.732Z,96799.19
2023-11-12T14:42:42.772Z,96822.66
2023-11-12T14:45:21.171Z,96827.31
2023-11-12T14:47:54.944Z,96801.97
2023-11-12T14:50:22.799Z,96796.81
2023-11-12T14:52:51.945Z,96832.78
2023-11-12T14:55:25.013Z,96833.78
2023-11-12T14:57:56.321Z,96802.22
2023-11-12T15:00:31.476Z,96813.72
2023-11-12T15:02:59.970Z,96810.97
2023-11-12T15:05:31.585Z,96799.72
2023-11-12T15:07:58.457Z,96804.50
2023-11-12T15:10:25.260Z,96801.16
2023-11-12T15:12:52.495Z,96821.72
2023-11-12T15:15:21.089Z,96816.84
2023-11-12T15:17:49.333Z,96816.13
2023-11-12T15:20:16.233Z,96800.03
2023-11-12T15:22:44.995Z,96818.69
2023-11-12T15:25:17.740Z,96798.03
2023-11-12T15:27:46.382Z,96793.38
2023-11-12T15:30:14.585Z,96793.38
2023-11-12T15:32:42.845Z,96822.25
2023-11-12T15:35:10.762Z,96797.59
2023-11-12T15:37:38.377Z,96801.69
2023-11-12T15:40:15.196Z,96809.06
2023-11-12T15:42:46.380Z,96819.06
2023-11-12T15:45:14.322Z,96810.56
2023-11-12T15:47:40.985Z,96827.22
2023-11-12T15:50:10.516Z,96827.34
2023-11-12T15:52:38.026Z,96825.97
2023-11-12T15:55:05.153Z,96814.84
2023-11-12T15:57:32.314Z,96810.25
2023-11-12T15:59:59.326Z,96799.66
2023-11-12T16:02:26.349Z,96808.13
2023-11-12T16:04:53.183Z,96831.91
2023-11-12T16:07:20.435Z,96802.22
2023-11-12T16:09:47.225Z,96806.63
2023-11-12T16:12:14.026Z,96835.78
2023-11-12T16:14:40.643Z,96814.41
2023-11-12T16:17:07.324Z,96835.72
2023-11-12T16:19:34.016Z,96830.19
2023-11-12T16:22:00.806Z,96815.69
2023-11-12T16:24:27.684Z,96812.13
2023-11-12T16:26:54.586Z,96823.09
2023-11-12T16:29:21.482Z,96834.88
2023-11-12T16:31:48.435Z,96845.53
2023-11-12T16:34:15.217Z,96842.91
2023-11-12T16:36:41.991Z,96805.31
2023-11-12T16:39:09.993Z,96848.53
2023-11-12T16:41:36.632Z,96827.75
2023-11-12T16:44:04.628Z,96849.13
2023-11-12T16:46:33.119Z,96834.34
2023-11-12T16:48:59.917Z,96853.88
2023-11-12T16:51:26.584Z,96852.50
2023-11-12T16:53:53.251Z,96848.00
2023-11-12T16:56:21.018Z,96837.44
2023-11-12T16:58:48.551Z,96841.47
2023-11-12T17:01:16.135Z,96822.63
2023-11-12T17:03:43.060Z,96845.31
2023-11-12T17:06:10.641Z,96845.25
2023-11-12T17:08:37.715Z,96823.16
2023-11-12T17:11:06.972Z,96857.38
2023-11-12T17:13:34.251Z,96829.31
2023-11-12T17:16:00.986Z,96838.06
2023-11-12T17:18:28.706Z,96851.28
2023-11-12T17:20:55.448Z,96849.97
2023-11-12T17:23:22.825Z,96834.88
2023-11-12T17:25:49.577Z,96863.03
2023-11-12T17:28:16.270Z,96825.22
2023-11-12T17:30:43.048Z,96840.69
2023-11-12T17:33:09.776Z,96827.50
2023-11-12T17:35:38.349Z,96870.81
2023-11-12T17:38:04.860Z,96873.41
2023-11-12T17:40:31.763Z,96881.00
2023-11-12T17:42:58.467Z,96860.94
2023-11-12T17:45:25.154Z,96877.75
2023-11-12T17:47:52.392Z,96873.91
2023-11-12T17:50:19.146Z,96869.22
2023-11-12T17:52:46.862Z,96895.19
2023-11-12T17:55:14.330Z,96892.28
2023-11-12T17:57:41.482Z,96888.03
2023-11-12T18:00:10.068Z,96890.84
2023-11-12T18:02:40.903Z,96905.03
2023-11-12T18:05:08.068Z,96904.72
2023-11-12T18:07:34.833Z,96890.50
2023-11-12T18:10:03.646Z,96885.81
2023-11-12T18:12:30.633Z,96898.63
2023-11-12T18:14:58.359Z,96894.31
2023-11-12T18:17:26.752Z,96888.19
2023-11-12T18:19:53.385Z,96918.13
2023-11-12T18:22:21.533Z,96914.75
2023-11-12T18:24:49.379Z,96903.38
2023-11-12T18:27:16.485Z,96900.06
2023-11-12T18:29:44.970Z,96923.75
2023-11-12T18:32:11.634Z,96920.69
2023-11-12T18:34:38.612Z,96919.69
2023-11-12T18:37:05.592Z,96919.19
2023-11-12T18:39:32.528Z,96883.44
2023-11-12T18:41:59.444Z,96917.34
2023-11-12T18:44:26.174Z,96910.59
2023-11-12T18:46:55.175Z,96910.84
2023-11-12T18:49:23.159Z,96886.66
2023-11-12T18:51:49.843Z,96901.97
2023-11-12T18:54:16.554Z,96888.31
2023-11-12T18:56:43.231Z,96909.91
2023-11-12T18:59:12.104Z,96906.63
2023-11-12T19:01:40.230Z,96931.22
2023-11-12T19:04:07.566Z,96927.25
2023-11-12T19:06:39.829Z,96917.59
2023-11-12T19:09:08.909Z,96930.66
2023-11-12T19:11:36.232Z,96930.47
2023-11-12T19:14:05.382Z,96904.31
2023-11-12T19:16:32.189Z,96925.00
2023-11-12T19:19:02.404Z,96934.53
2023-11-12T19:21:30.320Z,96926.34
2023-11-12T19:23:56.933Z,96904.16
2023-11-12T19:26:23.636Z,96917.59
2023-11-12T19:28:50.280Z,96944.41
2023-11-12T19:31:27.967Z,96914.19
2023-11-12T19:33:59.571Z,96949.09
2023-11-12T19:36:26.261Z,96932.91
2023-11-12T19:38:52.869Z,96939.31
2023-11-12T19:41:19.644Z,96957.03
2023-11-12T19:43:46.307Z,96964.75
2023-11-12T19:46:14.442Z,96958.06
2023-11-12T19:48:41.915Z,96959.53
2023-11-12T19:51:08.620Z,96939.44
2023-11-12T19:53:35.320Z,96944.34
2023-11-12T19:56:04.620Z,96951.03
2023-11-12T19:58:31.323Z,96956.84
2023-11-12T20:00:58.660Z,96948.22
2023-11-12T20:03:25.574Z,96968.94
2023-11-12T20:05:52.274Z,96971.53
2023-11-12T20:08:18.975Z,96949.53
2023-11-12T20:10:48.125Z,96950.63
2023-11-12T20:13:15.225Z,96961.25
2023-11-12T20:15:42.309Z,96975.78
2023-11-12T20:18:10.565Z,96985.25
2023-11-12T20:20:40.511Z,96976.63
2023-11-12T20:23:08.817Z,96971.94
2023-11-12T20:25:36.686Z,96990.06
2023-11-12T20:28:04.993Z,96967.34
2023-11-12T20:30:37.445Z,96973.56
2023-11-12T20:33:04.260Z,96951.63
2023-11-12T20:35:31.055Z,96959.75
2023-11-12T20:38:00.257Z,96959.69
2023-11-12T20:40:31.044Z,96948.00
2023-11-12T20:42:57.755Z,96968.28
2023-11-12T20:45:26.393Z,96976.13
2023-11-12T20:47:53.317Z,96976.13
2023-11-12T20:50:20.484Z,96956.63
2023-11-12T20:52:47.666Z,96975.09
2023-11-12T20:55:17.216Z,96985.31
2023-11-12T20:57:50.825Z,96977.91
2023-11-12T21:00:22.231Z,97009.53
2023-11-12T21:02:50.452Z,97030.88
2023-11-12T21:05:17.529Z,97026.91
2023-11-12T21:07:44.199Z,96993.28
2023-11-12T21:10:10.927Z,96978.53
2023-11-12T21:12:37.642Z,97004.06
2023-11-12T21:15:07.293Z,96968.31
2023-11-12T21:17:33.966Z,97014.56
2023-11-12T21:20:00.700Z,97007.84
2023-11-12T21:22:27.367Z,96995.03
2023-11-12T21:24:54.655Z,96974.41
2023-11-12T21:27:21.373Z,97005.81
2023-11-12T21:29:51.480Z,97004.13
2023-11-12T21:32:20.328Z,96985.25
2023-11-12T21:34:47.780Z,96938.75
2023-11-12T21:37:14.589Z,96962.13
